Time;durP1;ratioP1;P1;durP2;ratioP2;P2;SDS_P1;SDS_P2;PMS_P1;PMS_P2;Temp;Humidity;BMP_temperature;BMP_pressure;BME280_temperature;BME280_humidity;BME280_pressure;Samples;Min_cycle;Max_cycle;Signal;HPM_P1;HPM_P2
2023/10/15 00:01:30;;;;;;;222.70;56.92;;;;;;;;;;4972722;28;20259;-48
2023/10/15 00:03:56;;;;;;;224.30;57.83;;;;;;;;;;4972303;28;20661;-47
2023/10/15 00:06:22;;;;;;;225.35;58.65;;;;;;;;;;4972613;28;20192;-47
2023/10/15 00:08:50;;;;;;;222.63;55.20;;;;;;;;;;4972637;28;20173;-47
2023/10/15 00:11:23;;;;;;;223.10;56.45;;;;;;;;;;4972652;28;20286;-47
2023/10/15 00:13:49;;;;;;;220.77;55.60;;;;;;;;;;4965249;28;20185;-47
2023/10/15 00:16:21;;;;;;;223.77;56.60;;;;;;;;;;4972663;28;20545;-47
2023/10/15 00:18:47;;;;;;;221.95;55.80;;;;;;;;;;4971025;28;20414;-47
2023/10/15 00:21:14;;;;;;;223.00;57.20;;;;;;;;;;4972774;28;20272;-47
2023/10/15 00:23:41;;;;;;;223.13;57.35;;;;;;;;;;4972272;28;20448;-47
2023/10/15 00:26:07;;;;;;;223.15;54.28;;;;;;;;;;4972936;28;20214;-47
2023/10/15 00:28:33;;;;;;;224.68;55.55;;;;;;;;;;4972540;28;20239;-48
2023/10/15 00:31:08;;;;;;;225.85;56.67;;;;;;;;;;4972442;28;20689;-47
2023/10/15 00:33:34;;;;;;;229.82;61.90;;;;;;;;;;4972167;28;20279;-47
2023/10/15 00:36:00;;;;;;;225.73;60.08;;;;;;;;;;4972633;28;20166;-47
2023/10/15 00:38:26;;;;;;;224.35;58.05;;;;;;;;;;4972512;28;20291;-47
2023/10/15 00:41:00;;;;;;;225.37;57.90;;;;;;;;;;4972462;28;20597;-48
2023/10/15 00:43:27;;;;;;;224.07;57.30;;;;;;;;;;4972133;28;20518;-47
2023/10/15 00:45:53;;;;;;;225.20;57.25;;;;;;;;;;4972356;28;20224;-47
2023/10/15 00:48:24;;;;;;;225.02;56.08;;;;;;;;;;4972957;28;20212;-47
2023/10/15 00:50:51;;;;;;;225.80;58.47;;;;;;;;;;4968836;28;20255;-47
2023/10/15 00:53:22;;;;;;;224.05;55.00;;;;;;;;;;4975760;28;20177;-47
2023/10/15 00:55:52;;;;;;;223.88;56.78;;;;;;;;;;4976069;28;20160;-48
2023/10/15 00:58:45;;;;;;;223.88;56.15;;;;;;;;;;4975840;28;20195;-48
2023/10/15 01:03:54;;;;;;;230.02;63.17;;;;;;;;;;4974824;28;20203;-47
2023/10/15 01:06:29;;;;;;;220.60;53.78;;;;;;;;;;4975348;28;20255;-48
2023/10/15 01:08:58;;;;;;;222.32;57.17;;;;;;;;;;4975421;28;20173;-47
2023/10/15 01:11:28;;;;;;;227.45;57.00;;;;;;;;;;4975565;28;20203;-47
2023/10/15 01:13:54;;;;;;;223.10;55.95;;;;;;;;;;4975281;28;20226;-47
2023/10/15 01:16:20;;;;;;;225.48;59.55;;;;;;;;;;4975500;28;20188;-48
2023/10/15 01:18:58;;;;;;;225.88;58.38;;;;;;;;;;4975391;28;20184;-47
2023/10/15 01:21:29;;;;;;;222.27;54.97;;;;;;;;;;4975808;28;20196;-47
2023/10/15 01:24:05;;;;;;;223.70;56.85;;;;;;;;;;4975182;28;20196;-47
2023/10/15 01:26:36;;;;;;;221.38;55.53;;;;;;;;;;4975559;28;20253;-47
2023/10/15 01:29:05;;;;;;;225.52;58.85;;;;;;;;;;4969875;28;20232;-47
2023/10/15 01:31:39;;;;;;;223.38;55.97;;;;;;;;;;4975243;28;20183;-47
2023/10/15 01:34:09;;;;;;;221.32;55.20;;;;;;;;;;4975109;28;20197;-47
2023/10/15 01:36:38;;;;;;;224.07;57.30;;;;;;;;;;4975220;28;20188;-48
2023/10/15 01:39:12;;;;;;;222.52;55.13;;;;;;;;;;4975073;28;20178;-48
2023/10/15 01:41:42;;;;;;;222.48;56.80;;;;;;;;;;4975062;28;20180;-48
2023/10/15 01:44:10;;;;;;;222.55;56.20;;;;;;;;;;4974706;28;20192;-48
2023/10/15 01:47:18;;;;;;;222.00;55.67;;;;;;;;;;4974974;28;20559;-48
2023/10/15 01:49:31;;;;;;;220.77;54.08;;;;;;;;;;4966941;28;20227;-48
2023/10/15 01:52:06;;;;;;;221.48;54.42;;;;;;;;;;4974872;28;20663;-48
2023/10/15 01:54:32;;;;;;;222.77;55.22;;;;;;;;;;4974690;28;20615;-48
2023/10/15 01:57:00;;;;;;;222.95;55.10;;;;;;;;;;4974935;28;20173;-47
2023/10/15 01:59:26;;;;;;;221.82;53.83;;;;;;;;;;4974127;28;20652;-47
2023/10/15 02:01:52;;;;;;;221.23;53.05;;;;;;;;;;4974548;28;20180;-47
2023/10/15 02:06:47;;;;;;;226.50;57.55;;;;;;;;;;4967106;28;20489;-47
2023/10/15 02:09:21;;;;;;;225.87;55.97;;;;;;;;;;4974506;28;20180;-48
2023/10/15 02:11:54;;;;;;;229.27;60.08;;;;;;;;;;4966979;28;20928;-48
2023/10/15 02:14:27;;;;;;;224.35;55.08;;;;;;;;;;4971340;28;20197;-48
2023/10/15 02:16:53;;;;;;;224.00;55.08;;;;;;;;;;4974546;28;20181;-48
2023/10/15 02:19:34;;;;;;;220.15;52.30;;;;;;;;;;4974422;28;20180;-48
2023/10/15 02:22:01;;;;;;;217.82;51.55;;;;;;;;;;4968784;28;20605;-48
2023/10/15 02:24:32;;;;;;;222.65;56.38;;;;;;;;;;4974091;28;20197;-48
2023/10/15 02:26:58;;;;;;;222.10;54.58;;;;;;;;;;4974373;28;20300;-48
2023/10/15 02:29:34;;;;;;;225.57;55.33;;;;;;;;;;4974156;28;20217;-48
2023/10/15 02:34:57;;;;;;;222.07;55.92;;;;;;;;;;4962753;28;20209;-48
2023/10/15 02:37:26;;;;;;;225.27;57.85;;;;;;;;;;4972736;28;20698;-47
2023/10/15 02:39:52;;;;;;;225.23;55.20;;;;;;;;;;4973991;28;20181;-48
2023/10/15 02:42:19;;;;;;;223.38;55.40;;;;;;;;;;4974093;28;20561;-48
2023/10/15 02:44:50;;;;;;;224.50;56.47;;;;;;;;;;4965789;28;20205;-48
2023/10/15 02:47:19;;;;;;;221.63;55.75;;;;;;;;;;4973980;28;20184;-48
2023/10/15 02:49:51;;;;;;;226.07;57.70;;;;;;;;;;4968935;28;20188;-48
2023/10/15 02:52:23;;;;;;;224.02;55.95;;;;;;;;;;4973850;28;20277;-48
2023/10/15 02:54:49;;;;;;;225.27;56.75;;;;;;;;;;4966317;28;20188;-48
2023/10/15 02:57:16;;;;;;;225.60;57.55;;;;;;;;;;4973703;28;20314;-48
2023/10/15 02:59:51;;;;;;;223.38;56.35;;;;;;;;;;4973633;28;20177;-47
2023/10/15 03:02:18;;;;;;;224.20;57.08;;;;;;;;;;4973645;28;20267;-46
2023/10/15 03:04:49;;;;;;;224.43;57.90;;;;;;;;;;4973271;28;20685;-46
2023/10/15 03:07:29;;;;;;;220.68;54.22;;;;;;;;;;4973539;28;20323;-46
2023/10/15 03:09:58;;;;;;;223.82;57.42;;;;;;;;;;4966987;28;20312;-45
2023/10/15 03:12:24;;;;;;;224.85;58.42;;;;;;;;;;4972706;28;20178;-46
2023/10/15 03:14:54;;;;;;;223.75;55.83;;;;;;;;;;4973117;28;20614;-46
2023/10/15 03:17:29;;;;;;;222.43;55.50;;;;;;;;;;4973545;28;20172;-46
2023/10/15 03:19:56;;;;;;;223.77;57.13;;;;;;;;;;4966772;28;20207;-46
2023/10/15 03:22:29;;;;;;;222.52;54.67;;;;;;;;;;4973259;28;20727;-46
2023/10/15 03:24:59;;;;;;;221.02;53.30;;;;;;;;;;4973047;28;20248;-46
2023/10/15 03:27:28;;;;;;;223.68;56.40;;;;;;;;;;4973242;28;20177;-46
2023/10/15 03:29:57;;;;;;;223.38;55.60;;;;;;;;;;4973113;28;20201;-46
2023/10/15 03:32:31;;;;;;;223.38;56.05;;;;;;;;;;4972839;28;20465;-46
2023/10/15 03:35:04;;;;;;;225.88;57.58;;;;;;;;;;4972966;28;20204;-47
2023/10/15 03:37:30;;;;;;;225.07;57.33;;;;;;;;;;4973124;28;20691;-47
2023/10/15 03:39:57;;;;;;;219.88;53.72;;;;;;;;;;4973417;28;20197;-47
2023/10/15 03:42:26;;;;;;;219.95;53.58;;;;;;;;;;4973091;28;20538;-46
2023/10/15 03:45:01;;;;;;;223.00;54.90;;;;;;;;;;4972617;28;20284;-46
2023/10/15 03:47:27;;;;;;;221.98;53.85;;;;;;;;;;4972972;28;20191;-47
2023/10/15 03:49:55;;;;;;;221.27;53.10;;;;;;;;;;4972895;28;20201;-46
2023/10/15 03:52:21;;;;;;;225.00;57.70;;;;;;;;;;4972822;28;20181;-46
2023/10/15 03:54:48;;;;;;;223.63;56.55;;;;;;;;;;4973076;28;20200;-47
2023/10/15 03:57:17;;;;;;;222.02;56.10;;;;;;;;;;4972848;28;20188;-46
2023/10/15 03:59:44;;;;;;;223.10;55.78;;;;;;;;;;4972622;28;20166;-46
2023/10/15 04:02:17;;;;;;;221.57;56.15;;;;;;;;;;4973005;28;20216;-47
2023/10/15 04:04:47;;;;;;;220.55;56.05;;;;;;;;;;4965008;28;20256;-46
2023/10/15 04:07:19;;;;;;;221.27;55.30;;;;;;;;;;4972760;28;20197;-46
2023/10/15 04:09:45;;;;;;;220.63;54.95;;;;;;;;;;4968177;28;21021;-46
2023/10/15 04:12:11;;;;;;;220.38;53.95;;;;;;;;;;4972594;28;20557;-46
2023/10/15 04:14:43;;;;;;;221.27;54.40;;;;;;;;;;4972280;28;20193;-46
2023/10/15 04:17:09;;;;;;;222.75;56.58;;;;;;;;;;4972739;28;20428;-46
2023/10/15 04:19:36;;;;;;;218.90;52.50;;;;;;;;;;4972610;28;20193;-46
2023/10/15 04:22:14;;;;;;;223.20;56.55;;;;;;;;;;4972812;28;20227;-46
2023/10/15 04:24:46;;;;;;;222.90;57.17;;;;;;;;;;4976204;28;20241;-46
2023/10/15 04:27:17;;;;;;;219.80;53.92;;;;;;;;;;4972415;28;20173;-46
2023/10/15 04:29:51;;;;;;;222.40;56.30;;;;;;;;;;4976708;28;20695;-47
2023/10/15 04:32:45;;;;;;;221.48;56.17;;;;;;;;;;4975130;28;20177;-46
2023/10/15 04:35:15;;;;;;;219.18;52.90;;;;;;;;;;4976319;28;20181;-46
2023/10/15 04:37:44;;;;;;;219.63;53.15;;;;;;;;;;4976280;28;20166;-46
2023/10/15 04:40:11;;;;;;;224.20;57.72;;;;;;;;;;4976447;28;20645;-46
2023/10/15 04:42:41;;;;;;;222.13;56.05;;;;;;;;;;4976087;28;20264;-46
2023/10/15 04:47:53;;;;;;;223.45;55.70;;;;;;;;;;4972477;28;20228;-46
2023/10/15 04:50:20;;;;;;;221.30;54.22;;;;;;;;;;4976738;28;20207;-47
2023/10/15 04:52:46;;;;;;;221.65;55.67;;;;;;;;;;4975914;28;20173;-45
2023/10/15 04:55:13;;;;;;;222.75;55.72;;;;;;;;;;4976020;28;20283;-45
2023/10/15 04:57:39;;;;;;;221.80;55.40;;;;;;;;;;4975901;28;20184;-46
2023/10/15 05:00:06;;;;;;;222.25;54.28;;;;;;;;;;4975843;28;20185;-46
2023/10/15 05:02:36;;;;;;;222.93;55.35;;;;;;;;;;4975811;28;20203;-46
2023/10/15 05:05:05;;;;;;;223.50;57.33;;;;;;;;;;4975557;28;20568;-46
2023/10/15 05:07:31;;;;;;;219.60;53.63;;;;;;;;;;4975740;28;20192;-45
2023/10/15 05:09:59;;;;;;;219.65;54.13;;;;;;;;;;4975719;28;20675;-45
2023/10/15 05:12:25;;;;;;;221.85;55.38;;;;;;;;;;4975469;28;20259;-45
2023/10/15 05:14:51;;;;;;;222.37;54.50;;;;;;;;;;4975459;28;20275;-46
2023/10/15 05:17:17;;;;;;;220.03;54.23;;;;;;;;;;4975623;28;20412;-45
2023/10/15 05:19:43;;;;;;;223.97;56.90;;;;;;;;;;4975612;28;20412;-45
2023/10/15 05:22:09;;;;;;;221.00;54.58;;;;;;;;;;4975543;28;20408;-46
2023/10/15 05:24:36;;;;;;;221.63;54.25;;;;;;;;;;4975194;28;20216;-45
2023/10/15 05:27:02;;;;;;;224.98;58.05;;;;;;;;;;4975329;28;20165;-46
2023/10/15 05:29:28;;;;;;;220.80;53.53;;;;;;;;;;4975474;28;20195;-46
2023/10/15 05:31:54;;;;;;;222.75;54.53;;;;;;;;;;4975329;28;20440;-46
2023/10/15 05:34:20;;;;;;;220.43;54.13;;;;;;;;;;4974308;28;20274;-46
2023/10/15 05:36:46;;;;;;;220.60;53.05;;;;;;;;;;4975288;28;20195;-46
2023/10/15 05:39:15;;;;;;;224.00;54.97;;;;;;;;;;4975136;28;20641;-46
2023/10/15 05:41:42;;;;;;;225.57;57.28;;;;;;;;;;4974984;28;20219;-46
2023/10/15 05:44:08;;;;;;;225.55;58.40;;;;;;;;;;4974850;28;20195;-46
2023/10/15 05:46:34;;;;;;;221.57;54.13;;;;;;;;;;4975080;28;20705;-45
2023/10/15 05:49:00;;;;;;;221.95;55.03;;;;;;;;;;4975078;28;20408;-46
2023/10/15 05:51:30;;;;;;;224.10;58.30;;;;;;;;;;4974969;28;20684;-46
2023/10/15 05:53:56;;;;;;;222.50;55.08;;;;;;;;;;4974587;28;20521;-46
2023/10/15 05:56:22;;;;;;;224.40;57.60;;;;;;;;;;4974840;28;20264;-46
2023/10/15 05:58:48;;;;;;;221.52;54.72;;;;;;;;;;4974711;28;20401;-46
2023/10/15 06:01:15;;;;;;;219.90;53.30;;;;;;;;;;4974929;28;20176;-46
2023/10/15 06:03:41;;;;;;;221.27;55.17;;;;;;;;;;4974424;28;20193;-45
2023/10/15 06:06:07;;;;;;;220.15;53.67;;;;;;;;;;4974652;28;20263;-46
2023/10/15 06:08:33;;;;;;;222.77;55.80;;;;;;;;;;4974607;28;20218;-46
2023/10/15 06:10:59;;;;;;;222.47;55.53;;;;;;;;;;4974482;28;20221;-46
2023/10/15 06:13:25;;;;;;;223.00;55.50;;;;;;;;;;4974203;28;20930;-46
2023/10/15 06:15:51;;;;;;;224.97;58.03;;;;;;;;;;4974554;28;20412;-46
2023/10/15 06:18:17;;;;;;;221.73;53.80;;;;;;;;;;4974494;28;20486;-46
2023/10/15 06:20:46;;;;;;;223.90;54.87;;;;;;;;;;4974461;28;20515;-45
2023/10/15 06:23:13;;;;;;;224.00;56.53;;;;;;;;;;4973994;28;20750;-45
2023/10/15 06:25:39;;;;;;;226.57;57.15;;;;;;;;;;4974328;28;20221;-46
2023/10/15 06:28:05;;;;;;;226.77;57.57;;;;;;;;;;4974376;28;20603;-45
2023/10/15 06:30:31;;;;;;;222.27;55.25;;;;;;;;;;4974211;28;20467;-46
2023/10/15 06:32:58;;;;;;;231.87;65.37;;;;;;;;;;4974350;28;20632;-46
2023/10/15 06:35:27;;;;;;;225.38;56.67;;;;;;;;;;4974159;28;20806;-46
2023/10/15 06:37:57;;;;;;;224.30;56.45;;;;;;;;;;4974110;28;20663;-46
2023/10/15 06:40:24;;;;;;;219.30;53.60;;;;;;;;;;4971224;28;20188;-47
2023/10/15 06:42:51;;;;;;;229.50;61.20;;;;;;;;;;4972525;28;20592;-46
2023/10/15 06:45:20;;;;;;;219.73;53.55;;;;;;;;;;4973575;28;20254;-45
2023/10/15 06:47:51;;;;;;;221.05;55.58;;;;;;;;;;4965520;28;20183;-47
2023/10/15 06:50:19;;;;;;;219.25;54.50;;;;;;;;;;4973775;28;20196;-45
2023/10/15 06:52:45;;;;;;;218.63;53.55;;;;;;;;;;4968025;28;20184;-45
2023/10/15 06:55:13;;;;;;;220.80;56.03;;;;;;;;;;4973850;28;20233;-46
2023/10/15 06:57:39;;;;;;;218.70;54.72;;;;;;;;;;4973791;28;20195;-46
2023/10/15 07:00:06;;;;;;;221.43;59.50;;;;;;;;;;4973782;28;20645;-45
2023/10/15 07:02:32;;;;;;;222.70;57.53;;;;;;;;;;4973825;28;20531;-45
2023/10/15 07:05:00;;;;;;;219.73;56.42;;;;;;;;;;4973296;28;20287;-45
2023/10/15 07:07:27;;;;;;;220.02;56.75;;;;;;;;;;4973568;28;20274;-45
2023/10/15 07:09:53;;;;;;;218.93;56.22;;;;;;;;;;4973684;28;20196;-46
2023/10/15 07:12:20;;;;;;;216.98;53.92;;;;;;;;;;4973599;28;20172;-46
2023/10/15 07:14:46;;;;;;;218.90;54.60;;;;;;;;;;4965425;28;20203;-45
2023/10/15 07:17:11;;;;;;;220.53;55.23;;;;;;;;;;4973468;28;20250;-46
2023/10/15 07:19:37;;;;;;;219.90;55.20;;;;;;;;;;4973200;28;20505;-46
2023/10/15 07:22:04;;;;;;;220.30;56.83;;;;;;;;;;4973413;28;20464;-46
2023/10/15 07:24:31;;;;;;;221.10;58.67;;;;;;;;;;4973169;28;20428;-45
2023/10/15 07:26:57;;;;;;;220.95;55.78;;;;;;;;;;4973313;28;20180;-45
2023/10/15 07:29:24;;;;;;;221.38;56.85;;;;;;;;;;4973157;28;20669;-45
2023/10/15 07:31:50;;;;;;;219.18;54.90;;;;;;;;;;4973140;28;20184;-46
2023/10/15 07:34:17;;;;;;;221.50;57.40;;;;;;;;;;4972777;28;20398;-46
2023/10/15 07:36:43;;;;;;;219.88;54.95;;;;;;;;;;4973118;28;20169;-44
2023/10/15 07:39:09;;;;;;;220.15;54.67;;;;;;;;;;4973078;28;20176;-45
2023/10/15 07:41:37;;;;;;;218.05;54.15;;;;;;;;;;4973005;28;20564;-45
2023/10/15 07:44:03;;;;;;;217.70;53.08;;;;;;;;;;4972794;28;20193;-45
2023/10/15 07:46:29;;;;;;;219.60;54.38;;;;;;;;;;4972849;28;20200;-46
2023/10/15 07:48:57;;;;;;;219.18;55.05;;;;;;;;;;4972951;28;20178;-45
2023/10/15 07:51:23;;;;;;;222.13;57.45;;;;;;;;;;4972867;28;20212;-45
2023/10/15 07:53:49;;;;;;;220.30;55.95;;;;;;;;;;4972791;28;20196;-46
2023/10/15 07:56:15;;;;;;;224.03;59.47;;;;;;;;;;4972876;28;20174;-46
2023/10/15 07:58:41;;;;;;;221.40;57.13;;;;;;;;;;4972450;28;20459;-46
2023/10/15 08:01:07;;;;;;;221.63;55.05;;;;;;;;;;4972719;28;20913;-46
2023/10/15 08:03:33;;;;;;;222.05;56.60;;;;;;;;;;4972410;28;20243;-46
2023/10/15 08:06:02;;;;;;;219.67;54.93;;;;;;;;;;4972721;28;20212;-46
2023/10/15 08:08:29;;;;;;;220.70;55.78;;;;;;;;;;4972648;28;20441;-46
2023/10/15 08:10:56;;;;;;;220.50;54.70;;;;;;;;;;4972679;28;20284;-46
2023/10/15 08:13:22;;;;;;;225.30;60.22;;;;;;;;;;4972334;28;20174;-46
2023/10/15 08:15:48;;;;;;;224.70;59.55;;;;;;;;;;4972662;28;20170;-46
2023/10/15 08:18:14;;;;;;;221.47;55.67;;;;;;;;;;4972636;28;20193;-45
2023/10/15 08:20:40;;;;;;;222.97;56.27;;;;;;;;;;4972682;28;20981;-46
2023/10/15 08:23:06;;;;;;;226.50;59.63;;;;;;;;;;4972337;28;20459;-46
2023/10/15 08:25:32;;;;;;;224.13;57.20;;;;;;;;;;4972565;28;20625;-46
2023/10/15 08:27:58;;;;;;;222.05;54.70;;;;;;;;;;4972638;28;20824;-46
2023/10/15 08:30:24;;;;;;;225.02;57.42;;;;;;;;;;4972314;28;20232;-46
2023/10/15 08:32:50;;;;;;;233.03;64.93;;;;;;;;;;4972310;28;20197;-46
2023/10/15 08:35:16;;;;;;;220.97;56.07;;;;;;;;;;4972578;28;20504;-46
2023/10/15 08:37:43;;;;;;;223.23;57.05;;;;;;;;;;4972399;28;20409;-45
2023/10/15 08:40:15;;;;;;;225.07;58.25;;;;;;;;;;4972467;28;20228;-46
2023/10/15 08:42:48;;;;;;;223.82;57.33;;;;;;;;;;4972229;28;20173;-47
2023/10/15 08:45:22;;;;;;;224.13;59.15;;;;;;;;;;4972417;28;20186;-46
2023/10/15 08:47:50;;;;;;;223.95;59.85;;;;;;;;;;4965011;28;20185;-46
2023/10/15 08:50:20;;;;;;;221.88;55.75;;;;;;;;;;4972351;28;20255;-46
2023/10/15 08:52:46;;;;;;;225.40;57.53;;;;;;;;;;4964352;28;20208;-46
2023/10/15 08:55:13;;;;;;;224.25;59.65;;;;;;;;;;4972363;28;20281;-46
2023/10/15 08:57:39;;;;;;;223.57;57.30;;;;;;;;;;4971647;28;20651;-46
2023/10/15 09:00:09;;;;;;;220.73;56.17;;;;;;;;;;4972288;28;20185;-47
2023/10/15 09:02:36;;;;;;;223.20;58.08;;;;;;;;;;4972223;28;20216;-46
2023/10/15 09:05:04;;;;;;;221.30;55.38;;;;;;;;;;4972068;28;20204;-47
2023/10/15 09:07:33;;;;;;;224.40;58.28;;;;;;;;;;4972129;28;20189;-47
2023/10/15 09:10:00;;;;;;;225.27;59.15;;;;;;;;;;4973649;28;20194;-46
2023/10/15 09:12:26;;;;;;;226.57;60.65;;;;;;;;;;4975608;28;20174;-46
2023/10/15 09:14:53;;;;;;;225.07;58.83;;;;;;;;;;4971365;28;20209;-46
2023/10/15 09:17:19;;;;;;;224.15;57.40;;;;;;;;;;4975573;28;20766;-46
2023/10/15 09:19:46;;;;;;;223.43;57.33;;;;;;;;;;4973075;28;20186;-47
2023/10/15 09:22:16;;;;;;;228.63;62.95;;;;;;;;;;4975508;28;20174;-47
2023/10/15 09:24:42;;;;;;;228.60;65.15;;;;;;;;;;4975080;28;20187;-47
2023/10/15 09:27:08;;;;;;;226.73;61.13;;;;;;;;;;4975471;28;20549;-46
2023/10/15 09:29:34;;;;;;;226.35;61.80;;;;;;;;;;4975203;28;20182;-46
2023/10/15 09:32:04;;;;;;;224.67;59.43;;;;;;;;;;4975309;28;20228;-46
2023/10/15 09:34:30;;;;;;;229.75;64.95;;;;;;;;;;4974867;28;20476;-45
2023/10/15 09:37:00;;;;;;;225.90;60.95;;;;;;;;;;4975148;28;20174;-46
2023/10/15 09:39:26;;;;;;;227.48;61.40;;;;;;;;;;4975148;28;20182;-46
2023/10/15 09:41:54;;;;;;;223.07;57.05;;;;;;;;;;4974193;28;20181;-46
2023/10/15 09:44:21;;;;;;;225.60;61.92;;;;;;;;;;4974833;28;20271;-46
2023/10/15 09:46:47;;;;;;;226.10;58.38;;;;;;;;;;4975108;28;20177;-46
2023/10/15 09:49:14;;;;;;;226.80;62.03;;;;;;;;;;4975059;28;20177;-47
2023/10/15 09:51:40;;;;;;;224.52;58.75;;;;;;;;;;4983089;28;20216;-47
2023/10/15 09:54:14;;;;;;;224.43;59.00;;;;;;;;;;4974654;28;20692;-47
2023/10/15 09:56:41;;;;;;;228.95;60.75;;;;;;;;;;4975027;28;20185;-46
2023/10/15 09:59:08;;;;;;;225.15;57.60;;;;;;;;;;4974743;28;20189;-46
2023/10/15 10:01:36;;;;;;;222.20;55.90;;;;;;;;;;4974774;28;20205;-46
2023/10/15 10:04:23;;;;;;;223.85;59.10;;;;;;;;;;4974426;28;20272;-46
2023/10/15 10:07:06;;;;;;;223.02;55.80;;;;;;;;;;4974666;28;20193;-46
2023/10/15 10:09:51;;;;;;;227.45;58.90;;;;;;;;;;4974673;28;20248;-47
2023/10/15 10:12:17;;;;;;;224.85;58.47;;;;;;;;;;4974561;28;20641;-46
2023/10/15 10:15:04;;;;;;;225.53;57.67;;;;;;;;;;4974318;28;20216;-46
2023/10/15 10:17:31;;;;;;;225.40;58.30;;;;;;;;;;4974696;28;20436;-46
2023/10/15 10:19:57;;;;;;;227.70;59.35;;;;;;;;;;4973494;28;20169;-46
2023/10/15 10:22:23;;;;;;;229.37;59.10;;;;;;;;;;4972476;28;20193;-48
2023/10/15 10:24:50;;;;;;;233.23;62.28;;;;;;;;;;4972278;28;20544;-46
2023/10/15 10:27:17;;;;;;;232.18;63.05;;;;;;;;;;4973339;28;20312;-46
2023/10/15 10:29:43;;;;;;;232.20;66.05;;;;;;;;;;4973641;28;20202;-46
2023/10/15 10:32:15;;;;;;;230.88;63.58;;;;;;;;;;4974305;28;20305;-46
2023/10/15 10:34:41;;;;;;;229.80;60.92;;;;;;;;;;4973856;28;20204;-46
2023/10/15 10:37:20;;;;;;;228.55;62.50;;;;;;;;;;4974229;28;20253;-46
2023/10/15 10:39:48;;;;;;;230.45;63.10;;;;;;;;;;4974164;28;20185;-46
2023/10/15 10:42:24;;;;;;;232.32;65.90;;;;;;;;;;4974076;28;20186;-46
2023/10/15 10:44:50;;;;;;;230.20;63.65;;;;;;;;;;4973829;28;20196;-46
2023/10/15 10:47:18;;;;;;;231.13;65.53;;;;;;;;;;4974041;28;20672;-46
2023/10/15 10:49:47;;;;;;;231.80;64.82;;;;;;;;;;4973877;28;20465;-46
2023/10/15 10:52:23;;;;;;;232.65;66.32;;;;;;;;;;4974537;28;20192;-47
2023/10/15 10:54:49;;;;;;;231.88;66.45;;;;;;;;;;4973697;28;20196;-46
2023/10/15 10:57:18;;;;;;;232.82;68.38;;;;;;;;;;4973984;28;20200;-47
2023/10/15 10:59:44;;;;;;;234.13;69.53;;;;;;;;;;4973808;28;20165;-47
2023/10/15 11:02:11;;;;;;;233.57;67.30;;;;;;;;;;4973771;28;20178;-46
2023/10/15 11:04:38;;;;;;;235.10;68.20;;;;;;;;;;4973177;28;20441;-47
2023/10/15 11:07:04;;;;;;;234.97;71.77;;;;;;;;;;4973665;28;20550;-47
2023/10/15 11:09:30;;;;;;;234.97;72.07;;;;;;;;;;4973658;28;20464;-46
2023/10/15 11:11:57;;;;;;;232.87;70.27;;;;;;;;;;4973577;28;20449;-46
2023/10/15 11:14:24;;;;;;;235.17;75.47;;;;;;;;;;4973316;28;20786;-46
2023/10/15 11:16:50;;;;;;;235.17;72.87;;;;;;;;;;4973612;28;20442;-47
2023/10/15 11:19:17;;;;;;;234.37;72.00;;;;;;;;;;4973288;28;20928;-47
2023/10/15 11:21:43;;;;;;;237.93;75.87;;;;;;;;;;4973471;28;20948;-47
2023/10/15 11:24:10;;;;;;;233.27;72.20;;;;;;;;;;4973075;28;20441;-47
2023/10/15 11:26:42;;;;;;;233.60;72.23;;;;;;;;;;4973368;28;20532;-47
2023/10/15 11:29:10;;;;;;;234.97;72.40;;;;;;;;;;4966721;28;20433;-46
2023/10/15 11:31:37;;;;;;;235.93;73.90;;;;;;;;;;4968760;28;20555;-47
2023/10/15 11:34:03;;;;;;;238.53;76.67;;;;;;;;;;4971694;28;20970;-47
2023/10/15 11:36:35;;;;;;;235.50;74.70;;;;;;;;;;4973067;28;20478;-47
2023/10/15 11:39:08;;;;;;;232.57;69.37;;;;;;;;;;4973311;28;20832;-47
2023/10/15 11:41:34;;;;;;;233.90;71.67;;;;;;;;;;4972586;28;20416;-47
2023/10/15 11:44:04;;;;;;;240.07;76.30;;;;;;;;;;4971537;28;20474;-47
2023/10/15 11:46:30;;;;;;;229.70;67.43;;;;;;;;;;4973066;28;20494;-47
2023/10/15 11:49:00;;;;;;;236.20;77.37;;;;;;;;;;4973045;28;20436;-46
2023/10/15 11:51:27;;;;;;;230.63;68.00;;;;;;;;;;4972991;28;20910;-46
2023/10/15 11:53:53;;;;;;;232.27;73.33;;;;;;;;;;4972697;28;21058;-46
2023/10/15 11:56:20;;;;;;;239.57;76.57;;;;;;;;;;4972872;28;20511;-47
2023/10/15 11:58:48;;;;;;;233.15;71.38;;;;;;;;;;4972775;28;20416;-47
2023/10/15 12:01:15;;;;;;;235.47;71.50;;;;;;;;;;4973207;28;20201;-47
2023/10/15 12:03:43;;;;;;;236.47;72.63;;;;;;;;;;4972650;28;20428;-47
2023/10/15 12:06:09;;;;;;;234.73;72.67;;;;;;;;;;4972879;28;20920;-46
2023/10/15 12:08:35;;;;;;;237.30;75.47;;;;;;;;;;4972917;28;20420;-46
2023/10/15 12:11:01;;;;;;;235.40;75.87;;;;;;;;;;4972694;28;20974;-47
2023/10/15 12:13:27;;;;;;;240.97;80.20;;;;;;;;;;4972294;28;20417;-51
2023/10/15 12:15:53;;;;;;;238.40;76.67;;;;;;;;;;4973021;28;20483;-47
2023/10/15 12:18:19;;;;;;;237.00;74.67;;;;;;;;;;4972642;28;20830;-47
2023/10/15 12:20:45;;;;;;;237.63;78.93;;;;;;;;;;4972946;28;20444;-47
2023/10/15 12:23:11;;;;;;;237.03;77.40;;;;;;;;;;4972424;28;20462;-47
2023/10/15 12:25:38;;;;;;;236.77;77.57;;;;;;;;;;4972866;28;20922;-47
2023/10/15 12:28:05;;;;;;;236.87;77.37;;;;;;;;;;4972637;28;20819;-47
2023/10/15 12:30:32;;;;;;;235.83;74.10;;;;;;;;;;4972530;28;20499;-46
2023/10/15 12:32:58;;;;;;;236.30;74.90;;;;;;;;;;4972266;28;20420;-47
2023/10/15 12:35:24;;;;;;;233.77;72.43;;;;;;;;;;4972432;28;20775;-46
2023/10/15 12:38:05;;;;;;;233.50;74.53;;;;;;;;;;4972479;28;20195;-46
2023/10/15 12:40:34;;;;;;;231.38;70.15;;;;;;;;;;4972444;28;20775;-47
2023/10/15 12:43:00;;;;;;;235.73;73.27;;;;;;;;;;4972174;28;20170;-46
2023/10/15 12:45:26;;;;;;;233.33;74.33;;;;;;;;;;4974757;28;20522;-47
2023/10/15 12:47:52;;;;;;;232.13;70.97;;;;;;;;;;4976068;28;20408;-47
2023/10/15 12:50:19;;;;;;;230.77;71.00;;;;;;;;;;4976288;28;20458;-48
2023/10/15 12:52:45;;;;;;;230.93;70.57;;;;;;;;;;4967855;28;20448;-47
2023/10/15 12:55:12;;;;;;;230.33;68.47;;;;;;;;;;4975893;28;20934;-48
2023/10/15 12:57:38;;;;;;;230.07;70.50;;;;;;;;;;4976011;28;20496;-47
2023/10/15 13:00:16;;;;;;;230.23;68.47;;;;;;;;;;4975934;28;20922;-47
2023/10/15 13:02:43;;;;;;;229.67;70.23;;;;;;;;;;4975744;28;20415;-46
2023/10/15 13:05:09;;;;;;;229.67;68.93;;;;;;;;;;4975724;28;20441;-47
2023/10/15 13:07:35;;;;;;;232.13;71.53;;;;;;;;;;4975579;28;20434;-47
2023/10/15 13:10:02;;;;;;;227.63;66.97;;;;;;;;;;4975780;28;20558;-47
2023/10/15 13:12:28;;;;;;;234.30;72.30;;;;;;;;;;4975646;28;20424;-47
2023/10/15 13:14:54;;;;;;;232.30;69.73;;;;;;;;;;4975735;28;20518;-48
2023/10/15 13:17:21;;;;;;;232.37;72.10;;;;;;;;;;4975612;28;20500;-47
2023/10/15 13:19:47;;;;;;;236.60;78.53;;;;;;;;;;4975521;28;20463;-47
2023/10/15 13:22:13;;;;;;;230.67;70.47;;;;;;;;;;4975845;28;20816;-47
2023/10/15 13:24:39;;;;;;;232.00;71.10;;;;;;;;;;4975178;28;20440;-47
2023/10/15 13:27:05;;;;;;;230.87;71.70;;;;;;;;;;4975552;28;20413;-47
2023/10/15 13:29:31;;;;;;;232.17;71.20;;;;;;;;;;4975348;28;20474;-47
2023/10/15 13:31:57;;;;;;;229.93;69.50;;;;;;;;;;4975348;28;20426;-47
2023/10/15 13:34:23;;;;;;;233.33;72.03;;;;;;;;;;4975079;28;20520;-47
2023/10/15 13:36:49;;;;;;;238.33;76.93;;;;;;;;;;4975145;28;20439;-47
2023/10/15 13:39:28;;;;;;;239.03;80.13;;;;;;;;;;4975319;28;20455;-47
2023/10/15 13:41:54;;;;;;;236.47;77.87;;;;;;;;;;4975322;28;20416;-47
2023/10/15 13:44:20;;;;;;;232.03;70.47;;;;;;;;;;4975195;28;20835;-47
2023/10/15 13:46:47;;;;;;;233.97;74.17;;;;;;;;;;4975267;28;20420;-48
2023/10/15 13:49:13;;;;;;;234.60;75.37;;;;;;;;;;4975079;28;20423;-47
2023/10/15 13:51:42;;;;;;;236.63;77.03;;;;;;;;;;4974870;28;20468;-48
2023/10/15 13:54:08;;;;;;;234.80;74.83;;;;;;;;;;4974987;28;20580;-47
2023/10/15 13:56:34;;;;;;;234.47;75.77;;;;;;;;;;4974422;28;20417;-47
2023/10/15 13:59:00;;;;;;;233.50;73.70;;;;;;;;;;4974929;28;20411;-47
2023/10/15 14:01:26;;;;;;;234.00;74.67;;;;;;;;;;4975431;28;20416;-47
2023/10/15 14:03:54;;;;;;;235.20;74.67;;;;;;;;;;4974444;28;20431;-47
2023/10/15 14:06:20;;;;;;;232.47;71.77;;;;;;;;;;4974745;28;20431;-47
2023/10/15 14:08:46;;;;;;;234.07;75.00;;;;;;;;;;4974836;28;20773;-47
2023/10/15 14:11:12;;;;;;;230.33;70.00;;;;;;;;;;4974753;28;20459;-47
2023/10/15 14:13:38;;;;;;;231.77;71.40;;;;;;;;;;4974272;28;20948;-46
2023/10/15 14:16:04;;;;;;;232.07;72.07;;;;;;;;;;4974704;28;20908;-47
2023/10/15 14:18:30;;;;;;;235.77;75.60;;;;;;;;;;4974532;28;20416;-47
2023/10/15 14:20:56;;;;;;;233.10;71.57;;;;;;;;;;4968194;28;20743;-47